createdAt,value
2017-10-27T00:02:22.386Z,85.57
2017-10-27T00:04:52.010Z,162.97
2017-10-27T00:07:21.211Z,121.90
2017-10-27T00:09:50.375Z,151.87
2017-10-27T00:12:19.630Z,88.87
2017-10-27T00:14:48.940Z,73.67
2017-10-27T00:17:20.115Z,72.30
2017-10-27T00:19:49.271Z,80.87
2017-10-27T00:22:18.500Z,69.00
2017-10-27T00:24:47.852Z,70.80
2017-10-27T00:27:17.123Z,65.13
2017-10-27T00:30:00.964Z,62.53
2017-10-27T00:32:30.282Z,54.63
2017-10-27T00:34:59.423Z,53.90
2017-10-27T00:37:28.860Z,55.90
2017-10-27T00:39:58.103Z,53.40
2017-10-27T00:42:29.394Z,54.57
2017-10-27T00:44:58.568Z,39.87
2017-10-27T00:47:31.086Z,45.03
2017-10-27T00:50:00.253Z,63.13
2017-10-27T00:52:29.600Z,47.30
2017-10-27T00:55:02.562Z,42.63
2017-10-27T00:57:31.784Z,71.67
2017-10-27T01:00:01.163Z,74.13
2017-10-27T01:02:30.258Z,193.53
2017-10-27T01:04:59.352Z,162.90
2017-10-27T01:07:28.504Z,192.50
2017-10-27T01:10:10.008Z,80.47
2017-10-27T01:12:39.245Z,69.40
2017-10-27T01:15:08.385Z,58.50
2017-10-27T01:17:37.700Z,44.20
2017-10-27T01:20:06.944Z,46.53
2017-10-27T01:22:36.282Z,28.80
2017-10-27T01:25:05.445Z,31.03
2017-10-27T01:27:34.592Z,34.83
2017-10-27T01:30:03.947Z,36.97
2017-10-27T01:32:42.132Z,56.37
2017-10-27T01:35:11.463Z,46.17
2017-10-27T01:37:40.695Z,59.03
2017-10-27T01:40:09.949Z,41.83
2017-10-27T01:42:39.098Z,50.67
2017-10-27T01:45:08.403Z,39.80
2017-10-27T01:47:45.598Z,37.00
2017-10-27T01:50:14.834Z,58.07
2017-10-27T01:52:51.088Z,37.87
2017-10-27T01:55:21.890Z,70.47
2017-10-27T01:57:51.231Z,51.83
2017-10-27T02:00:20.569Z,39.83
2017-10-27T02:02:49.783Z,77.23
2017-10-27T02:05:22.512Z,117.60
2017-10-27T02:07:51.724Z,84.17
2017-10-27T02:10:20.932Z,53.33
2017-10-27T02:12:51.875Z,52.03
2017-10-27T02:15:21.548Z,41.27
2017-10-27T02:17:50.797Z,50.37
2017-10-27T02:20:20.141Z,39.90
2017-10-27T02:22:49.469Z,48.93
2017-10-27T02:25:20.389Z,26.30
2017-10-27T02:27:49.581Z,32.93
2017-10-27T02:30:18.791Z,24.13
2017-10-27T02:32:47.962Z,31.10
2017-10-27T02:35:17.307Z,18.73
2017-10-27T02:37:46.746Z,26.10
2017-10-27T02:40:15.911Z,24.20
2017-10-27T02:42:45.319Z,51.63
2017-10-27T02:45:14.649Z,38.57
2017-10-27T02:47:50.881Z,22.13
2017-10-27T02:50:26.331Z,61.70
2017-10-27T02:52:55.820Z,131.87
2017-10-27T02:55:25.137Z,85.20
2017-10-27T02:57:54.307Z,58.33
2017-10-27T03:00:23.440Z,41.13
2017-10-27T03:03:07.873Z,49.63
2017-10-27T03:05:37.393Z,55.30
2017-10-27T03:08:07.995Z,66.73
2017-10-27T03:10:37.186Z,70.73
2017-10-27T03:13:13.719Z,85.00
2017-10-27T03:15:43.174Z,38.80
2017-10-27T03:18:12.557Z,37.00
2017-10-27T03:20:41.741Z,44.40
2017-10-27T03:23:11.087Z,65.13
2017-10-27T03:25:40.278Z,25.57
2017-10-27T03:28:09.566Z,20.93
2017-10-27T03:30:38.804Z,21.10
2017-10-27T03:33:14.088Z,49.43
2017-10-27T03:35:43.571Z,28.17
2017-10-27T03:38:12.711Z,33.20
2017-10-27T03:40:41.837Z,29.43
2017-10-27T03:43:13.590Z,35.70
2017-10-27T03:45:42.723Z,15.87
2017-10-27T03:48:19.299Z,22.47
2017-10-27T03:50:48.596Z,31.23
2017-10-27T03:53:17.721Z,73.77
2017-10-27T03:55:47.061Z,40.47
2017-10-27T03:58:16.342Z,72.03
2017-10-27T04:00:45.487Z,114.97
2017-10-27T04:03:14.660Z,73.53
2017-10-27T04:05:43.935Z,35.67
2017-10-27T04:08:13.023Z,48.33
2017-10-27T04:10:42.153Z,93.33
2017-10-27T04:13:11.241Z,87.37
2017-10-27T04:15:40.420Z,35.30
2017-10-27T04:18:09.725Z,47.23
2017-10-27T04:20:39.015Z,34.00
2017-10-27T04:23:08.138Z,34.67
2017-10-27T04:25:37.385Z,27.93
2017-10-27T04:28:06.516Z,23.67
2017-10-27T04:30:35.658Z,41.90
2017-10-27T04:33:05.852Z,16.00
2017-10-27T04:35:34.984Z,18.73
2017-10-27T04:38:04.138Z,16.03
2017-10-27T04:40:33.396Z,26.77
2017-10-27T04:43:02.549Z,22.90
2017-10-27T04:45:45.778Z,29.03
2017-10-27T04:48:23.011Z,26.67
2017-10-27T04:50:52.156Z,48.03
2017-10-27T04:53:21.834Z,70.73
2017-10-27T04:55:51.099Z,38.10
2017-10-27T04:58:36.630Z,26.53
2017-10-27T05:01:06.867Z,25.83
2017-10-27T05:03:36.104Z,57.37
2017-10-27T05:06:05.213Z,47.77
2017-10-27T05:08:34.482Z,36.30
2017-10-27T05:11:03.610Z,33.23
2017-10-27T05:13:32.728Z,35.10
2017-10-27T05:16:01.886Z,29.13
2017-10-27T05:18:36.649Z,110.57
2017-10-27T05:21:12.559Z,64.50
2017-10-27T05:23:47.330Z,42.93
2017-10-27T05:26:17.542Z,30.50
2017-10-27T05:28:46.689Z,31.10
2017-10-27T05:31:15.872Z,36.50
2017-10-27T05:33:45.235Z,26.87
2017-10-27T05:36:14.371Z,30.73
2017-10-27T05:38:43.475Z,28.30
2017-10-27T05:41:12.608Z,39.47
2017-10-27T05:43:41.667Z,60.30
2017-10-27T05:46:16.999Z,42.27
2017-10-27T05:48:46.128Z,23.10
2017-10-27T05:51:15.213Z,42.87
2017-10-27T05:53:44.294Z,27.43
2017-10-27T05:56:13.408Z,24.00
2017-10-27T05:58:42.463Z,35.87
2017-10-27T06:01:19.545Z,35.30
2017-10-27T06:03:48.659Z,85.83
2017-10-27T06:06:18.055Z,57.80
2017-10-27T06:08:47.176Z,253.13
2017-10-27T06:11:16.424Z,528.63
2017-10-27T06:13:45.543Z,647.27
2017-10-27T06:16:14.602Z,656.40
2017-10-27T06:18:43.676Z,537.13
2017-10-27T06:21:12.940Z,345.57
2017-10-27T06:23:42.064Z,446.87
2017-10-27T06:26:11.172Z,231.40
2017-10-27T06:28:40.387Z,259.40
2017-10-27T06:31:16.019Z,148.07
2017-10-27T06:33:45.230Z,125.17
2017-10-27T06:36:14.363Z,191.67
2017-10-27T06:38:43.653Z,118.30
2017-10-27T06:41:14.398Z,200.27
2017-10-27T06:43:43.632Z,183.67
2017-10-27T06:46:12.740Z,192.33
2017-10-27T06:48:42.058Z,203.00
2017-10-27T06:51:14.581Z,125.63
2017-10-27T06:53:43.740Z,109.03
2017-10-27T06:56:12.974Z,164.27
2017-10-27T06:58:42.228Z,107.20
2017-10-27T07:01:11.336Z,102.30
2017-10-27T07:03:40.438Z,120.80
2017-10-27T07:06:09.653Z,166.30
2017-10-27T07:08:38.741Z,164.53
2017-10-27T07:11:14.011Z,228.03
2017-10-27T07:13:43.084Z,212.43
2017-10-27T07:16:12.235Z,251.30
2017-10-27T07:18:41.439Z,280.93
2017-10-27T07:21:10.542Z,180.63
2017-10-27T07:23:39.803Z,219.60
2017-10-27T07:26:09.048Z,247.70
2017-10-27T07:28:38.353Z,330.67
2017-10-27T07:31:07.506Z,271.97
2017-10-27T07:33:36.825Z,220.30
2017-10-27T07:36:06.180Z,268.13
2017-10-27T07:38:47.717Z,164.07
2017-10-27T07:41:16.848Z,256.83
2017-10-27T07:43:45.991Z,153.07
2017-10-27T07:46:22.296Z,164.20
2017-10-27T07:48:51.408Z,105.60
2017-10-27T07:51:20.544Z,152.73
2017-10-27T07:53:49.676Z,245.50
2017-10-27T07:56:18.801Z,153.93
2017-10-27T07:58:48.086Z,178.83
2017-10-27T08:01:17.244Z,111.27
2017-10-27T08:03:46.399Z,75.73
2017-10-27T08:06:16.148Z,64.60
2017-10-27T08:08:45.348Z,62.10
2017-10-27T08:11:14.481Z,36.47
2017-10-27T08:13:43.596Z,41.97
2017-10-27T08:16:12.735Z,43.50
2017-10-27T08:18:41.954Z,32.93
2017-10-27T08:21:11.605Z,50.63
2017-10-27T08:23:47.911Z,37.47
2017-10-27T08:26:17.012Z,42.23
2017-10-27T08:28:46.673Z,35.77
2017-10-27T08:31:16.940Z,34.93
2017-10-27T08:33:46.183Z,54.57
2017-10-27T08:36:15.904Z,48.07
2017-10-27T08:38:45.946Z,37.33
2017-10-27T08:41:15.095Z,46.83
2017-10-27T08:43:44.222Z,29.80
2017-10-27T08:46:13.412Z,39.67
2017-10-27T08:48:45.061Z,41.63
2017-10-27T08:51:20.457Z,32.37
2017-10-27T08:53:50.005Z,49.67
2017-10-27T08:56:19.111Z,40.77
2017-10-27T08:58:48.852Z,43.97
2017-10-27T09:01:18.036Z,50.83
2017-10-27T09:03:47.144Z,33.73
2017-10-27T09:06:16.250Z,39.73
2017-10-27T09:08:59.749Z,37.00
2017-10-27T09:11:29.091Z,51.50
2017-10-27T09:13:58.176Z,58.60
2017-10-27T09:16:27.503Z,46.17
2017-10-27T09:18:56.761Z,44.00
2017-10-27T09:21:25.953Z,44.17
2017-10-27T09:23:55.100Z,54.83
2017-10-27T09:26:25.209Z,46.23
2017-10-27T09:28:54.749Z,41.33
2017-10-27T09:31:24.088Z,54.13
2017-10-27T09:33:53.328Z,34.37
2017-10-27T09:36:22.683Z,43.10
2017-10-27T09:38:52.135Z,43.43
2017-10-27T09:41:21.387Z,53.70
2017-10-27T09:43:50.570Z,50.03
2017-10-27T09:46:19.771Z,50.43
2017-10-27T09:48:55.183Z,43.13
2017-10-27T09:51:24.429Z,54.33
2017-10-27T09:54:00.439Z,38.13
2017-10-27T09:56:29.629Z,43.00
2017-10-27T09:58:58.726Z,45.73
2017-10-27T10:01:28.269Z,41.20
2017-10-27T10:03:57.880Z,42.27
2017-10-27T10:06:27.092Z,46.83
2017-10-27T10:08:57.153Z,49.00
2017-10-27T10:11:26.261Z,45.87
2017-10-27T10:13:55.906Z,48.13
2017-10-27T10:16:25.031Z,42.67
2017-10-27T10:19:00.162Z,35.93
2017-10-27T10:21:29.316Z,36.13
2017-10-27T10:23:58.591Z,41.00
2017-10-27T10:26:27.815Z,40.23
2017-10-27T10:28:56.978Z,34.57
2017-10-27T10:31:39.831Z,47.57
2017-10-27T10:34:09.156Z,41.67
2017-10-27T10:36:38.750Z,48.43
2017-10-27T10:39:08.834Z,47.87
2017-10-27T10:41:38.081Z,52.13
2017-10-27T10:44:07.226Z,34.43
2017-10-27T10:46:37.534Z,43.30
2017-10-27T10:49:07.207Z,44.90
2017-10-27T10:51:36.320Z,46.07
2017-10-27T10:54:05.523Z,56.23
2017-10-27T10:56:34.622Z,33.30
2017-10-27T10:59:03.919Z,35.87
2017-10-27T11:01:33.073Z,41.87
2017-10-27T11:04:02.299Z,53.90
2017-10-27T11:06:31.398Z,45.33
2017-10-27T11:09:06.540Z,44.17
2017-10-27T11:11:42.893Z,44.87
2017-10-27T11:14:11.995Z,44.70
2017-10-27T11:16:41.070Z,38.23
2017-10-27T11:19:25.271Z,39.50
2017-10-27T11:21:54.366Z,39.50
2017-10-27T11:24:23.477Z,43.53
2017-10-27T11:26:52.592Z,38.37
2017-10-27T11:29:21.709Z,38.63
2017-10-27T11:31:50.964Z,37.00
2017-10-27T11:34:20.302Z,46.93
2017-10-27T11:36:49.442Z,44.03
2017-10-27T11:39:18.539Z,42.23
2017-10-27T11:41:47.758Z,40.40
2017-10-27T11:44:23.031Z,32.03
2017-10-27T11:46:52.160Z,42.67
2017-10-27T11:49:21.274Z,38.97
2017-10-27T11:51:50.359Z,32.73
2017-10-27T11:54:19.665Z,37.93
2017-10-27T11:56:48.739Z,28.93
2017-10-27T11:59:17.798Z,34.30
2017-10-27T12:01:46.895Z,26.20
2017-10-27T12:04:22.439Z,33.80
2017-10-27T12:06:51.565Z,27.30
2017-10-27T12:09:21.026Z,35.47
2017-10-27T12:11:52.034Z,29.47
2017-10-27T12:14:21.161Z,26.93
2017-10-27T12:16:56.296Z,33.50
2017-10-27T12:19:25.428Z,25.47
2017-10-27T12:21:54.581Z,24.83
2017-10-27T12:24:31.346Z,33.03
2017-10-27T12:27:00.496Z,29.70
2017-10-27T12:29:35.879Z,31.47
2017-10-27T12:32:05.100Z,82.63
2017-10-27T12:34:34.260Z,28.77
2017-10-27T12:37:03.828Z,30.10
2017-10-27T12:39:33.947Z,28.27
2017-10-27T12:42:03.079Z,31.00
2017-10-27T12:44:32.451Z,25.23
2017-10-27T12:47:01.655Z,23.30
2017-10-27T12:49:30.880Z,29.10
2017-10-27T12:52:15.442Z,27.33
2017-10-27T12:54:44.628Z,24.83
2017-10-27T12:57:20.242Z,22.97
2017-10-27T12:59:49.358Z,34.27
2017-10-27T13:02:18.492Z,29.37
2017-10-27T13:04:47.604Z,23.37
2017-10-27T13:07:16.740Z,27.30
2017-10-27T13:09:58.472Z,22.93
2017-10-27T13:12:27.671Z,23.80
2017-10-27T13:14:56.819Z,40.40
2017-10-27T13:17:26.195Z,32.60
2017-10-27T13:19:56.211Z,33.00
2017-10-27T13:22:25.324Z,23.07
2017-10-27T13:25:07.650Z,28.43
2017-10-27T13:27:36.903Z,29.63
2017-10-27T13:30:06.364Z,28.27
2017-10-27T13:32:35.484Z,28.57
2017-10-27T13:35:15.653Z,139.47
2017-10-27T13:37:44.803Z,25.00
2017-10-27T13:40:20.915Z,31.73
2017-10-27T13:42:50.052Z,186.77
2017-10-27T13:45:19.694Z,61.27
2017-10-27T13:47:52.700Z,102.80
2017-10-27T13:50:21.827Z,47.13
2017-10-27T13:53:01.953Z,50.93
2017-10-27T13:55:31.180Z,54.13
2017-10-27T13:58:06.368Z,59.40
2017-10-27T14:00:35.699Z,60.30
2017-10-27T14:03:04.830Z,70.13
2017-10-27T14:05:37.525Z,52.57
2017-10-27T14:08:06.672Z,61.33
2017-10-27T14:10:36.043Z,48.27
2017-10-27T14:13:05.166Z,55.10
2017-10-27T14:15:43.461Z,53.23
2017-10-27T14:18:12.563Z,49.13
2017-10-27T14:20:51.233Z,60.73
2017-10-27T14:23:22.819Z,48.40
2017-10-27T14:25:51.935Z,61.00
2017-10-27T14:28:22.936Z,51.23
2017-10-27T14:30:52.043Z,57.27
2017-10-27T14:33:21.182Z,66.40
2017-10-27T14:35:50.253Z,63.67
2017-10-27T14:38:19.534Z,63.50
2017-10-27T14:40:49.516Z,58.93
2017-10-27T14:43:19.765Z,54.00
2017-10-27T14:45:48.872Z,54.97
2017-10-27T14:48:18.552Z,61.23
2017-10-27T14:50:48.728Z,63.57
2017-10-27T14:53:17.996Z,58.83
2017-10-27T14:55:47.548Z,51.83
2017-10-27T14:58:22.846Z,43.50
2017-10-27T15:00:52.602Z,51.33
2017-10-27T15:03:29.368Z,38.00
2017-10-27T15:05:58.619Z,51.13
2017-10-27T15:08:27.738Z,40.40
2017-10-27T15:10:57.638Z,37.43
2017-10-27T15:13:27.140Z,44.10
2017-10-27T15:15:56.300Z,38.03
2017-10-27T15:18:25.899Z,48.93
2017-10-27T15:20:55.210Z,37.33
2017-10-27T15:23:24.359Z,35.80
2017-10-27T15:26:00.474Z,41.37
2017-10-27T15:28:29.624Z,37.90
2017-10-27T15:30:58.732Z,38.83
2017-10-27T15:33:27.831Z,37.43
2017-10-27T15:35:57.707Z,36.13
2017-10-27T15:38:26.837Z,29.53
2017-10-27T15:40:56.127Z,34.43
2017-10-27T15:43:25.214Z,36.57
2017-10-27T15:45:54.781Z,34.53
2017-10-27T15:48:23.912Z,26.13
2017-10-27T15:50:53.038Z,31.73
2017-10-27T15:53:22.504Z,38.23
2017-10-27T15:55:51.898Z,32.70
2017-10-27T15:58:20.989Z,25.40
2017-10-27T16:00:50.454Z,28.70
2017-10-27T16:03:19.584Z,30.77
2017-10-27T16:05:48.882Z,33.47
2017-10-27T16:08:17.990Z,24.40
2017-10-27T16:11:04.468Z,38.10
2017-10-27T16:13:33.580Z,37.27
2017-10-27T16:16:09.367Z,31.57
2017-10-27T16:18:38.757Z,25.70
2017-10-27T16:21:07.970Z,26.63
2017-10-27T16:23:37.309Z,34.27
2017-10-27T16:26:07.271Z,36.07
2017-10-27T16:28:36.355Z,40.43
2017-10-27T16:31:05.451Z,33.83
2017-10-27T16:33:41.114Z,31.70
2017-10-27T16:36:10.223Z,27.93
2017-10-27T16:38:47.223Z,32.77
2017-10-27T16:41:16.583Z,31.27
2017-10-27T16:43:46.653Z,29.03
2017-10-27T16:46:15.808Z,28.10
2017-10-27T16:48:45.333Z,33.60
2017-10-27T16:51:15.286Z,30.83
2017-10-27T16:53:45.762Z,23.00
2017-10-27T16:56:15.483Z,22.73
2017-10-27T16:58:44.833Z,24.83
2017-10-27T17:01:14.561Z,26.00
2017-10-27T17:03:44.008Z,26.03
2017-10-27T17:06:14.388Z,26.60
2017-10-27T17:08:44.008Z,29.63
2017-10-27T17:11:13.384Z,38.57
2017-10-27T17:13:42.732Z,36.10
2017-10-27T17:16:18.687Z,39.30
2017-10-27T17:18:48.570Z,23.47
2017-10-27T17:21:18.071Z,29.90
2017-10-27T17:23:55.671Z,31.27
2017-10-27T17:26:25.141Z,38.30
2017-10-27T17:29:07.685Z,22.90
2017-10-27T17:31:44.835Z,35.33
2017-10-27T17:34:14.916Z,26.93
2017-10-27T17:36:44.371Z,31.70
2017-10-27T17:39:13.541Z,29.00
2017-10-27T17:41:42.934Z,32.60
2017-10-27T17:44:12.113Z,28.27
2017-10-27T17:46:42.256Z,30.60
2017-10-27T17:49:11.423Z,32.40
2017-10-27T17:51:40.529Z,31.53
2017-10-27T17:54:09.818Z,39.97
2017-10-27T17:56:46.993Z,32.73
2017-10-27T17:59:16.327Z,20.93
2017-10-27T18:01:57.684Z,37.50
2017-10-27T18:04:27.041Z,26.73
2017-10-27T18:06:56.314Z,29.10
2017-10-27T18:09:25.476Z,24.10
2017-10-27T18:11:54.679Z,42.23
2017-10-27T18:14:24.192Z,22.67
2017-10-27T18:16:54.415Z,32.73
2017-10-27T18:19:32.726Z,24.37
2017-10-27T18:22:01.938Z,32.00
2017-10-27T18:24:31.799Z,27.40
2017-10-27T18:27:01.578Z,28.93
2017-10-27T18:29:37.710Z,26.60
2017-10-27T18:32:06.857Z,28.30
2017-10-27T18:34:36.439Z,24.87
2017-10-27T18:37:06.073Z,30.03
2017-10-27T18:39:50.242Z,23.40
2017-10-27T18:42:19.382Z,23.83
2017-10-27T18:44:48.680Z,27.90
2017-10-27T18:47:24.756Z,27.93
2017-10-27T18:49:54.509Z,28.03
2017-10-27T18:52:23.585Z,19.47
2017-10-27T18:54:52.720Z,25.47
2017-10-27T18:57:21.832Z,22.33
2017-10-27T18:59:50.947Z,24.27
2017-10-27T19:02:20.914Z,22.27
2017-10-27T19:04:51.351Z,27.57
2017-10-27T19:07:20.812Z,24.00
2017-10-27T19:09:49.950Z,20.00
2017-10-27T19:12:21.374Z,27.10
2017-10-27T19:14:50.718Z,25.40
2017-10-27T19:17:20.084Z,30.10
2017-10-27T19:20:02.195Z,28.67
2017-10-27T19:22:31.807Z,23.60
2017-10-27T19:25:01.316Z,22.10
2017-10-27T19:27:30.652Z,40.07
2017-10-27T19:29:59.789Z,26.13
2017-10-27T19:32:28.842Z,23.57
2017-10-27T19:34:58.027Z,20.40
2017-10-27T19:37:27.098Z,25.63
2017-10-27T19:39:56.535Z,21.37
2017-10-27T19:42:26.305Z,19.43
2017-10-27T19:44:57.204Z,23.67
2017-10-27T19:47:26.408Z,20.20
2017-10-27T19:49:55.500Z,20.33
2017-10-27T19:52:27.046Z,22.53
2017-10-27T19:54:56.414Z,21.67
2017-10-27T19:57:25.731Z,27.60
2017-10-27T19:59:54.861Z,21.33
2017-10-27T20:02:24.052Z,21.57
2017-10-27T20:04:53.436Z,22.60
2017-10-27T20:07:22.500Z,22.73
2017-10-27T20:09:51.763Z,21.20
2017-10-27T20:12:27.803Z,21.50
2017-10-27T20:14:56.997Z,22.83
2017-10-27T20:17:27.158Z,28.43
2017-10-27T20:19:56.373Z,21.83
2017-10-27T20:22:25.609Z,17.93
2017-10-27T20:24:55.679Z,18.50
2017-10-27T20:27:25.073Z,21.87
2017-10-27T20:29:54.140Z,30.30
2017-10-27T20:32:23.247Z,17.00
2017-10-27T20:34:52.642Z,21.33
2017-10-27T20:37:21.726Z,27.03
2017-10-27T20:39:52.208Z,26.83
2017-10-27T20:42:34.032Z,20.57
2017-10-27T20:45:17.284Z,27.87
2017-10-27T20:47:47.312Z,21.10
2017-10-27T20:50:16.567Z,18.83
2017-10-27T20:52:45.619Z,21.90
2017-10-27T20:55:14.736Z,21.50
2017-10-27T20:57:43.826Z,19.47
2017-10-27T21:00:13.266Z,20.37
2017-10-27T21:02:42.349Z,21.07
2017-10-27T21:05:19.281Z,20.77
2017-10-27T21:07:48.737Z,29.20
2017-10-27T21:10:17.839Z,23.07
2017-10-27T21:12:47.143Z,20.40
2017-10-27T21:15:16.263Z,28.13
2017-10-27T21:17:45.540Z,29.27
2017-10-27T21:20:14.819Z,23.03
2017-10-27T21:22:44.054Z,22.00
2017-10-27T21:25:13.156Z,17.70
2017-10-27T21:27:42.273Z,24.10
2017-10-27T21:30:11.364Z,24.33
2017-10-27T21:32:40.611Z,17.87
2017-10-27T21:35:09.753Z,17.50
2017-10-27T21:37:38.817Z,22.03
2017-10-27T21:40:07.941Z,22.80
2017-10-27T21:42:37.167Z,21.03
2017-10-27T21:45:06.271Z,23.43
2017-10-27T21:47:35.377Z,24.00
2017-10-27T21:50:04.497Z,20.57
2017-10-27T21:52:33.818Z,22.60
2017-10-27T21:55:03.120Z,32.27
2017-10-27T21:57:32.579Z,21.93
2017-10-27T22:00:01.700Z,23.90
2017-10-27T22:02:31.043Z,21.80
2017-10-27T22:05:00.252Z,23.73
2017-10-27T22:07:29.331Z,21.40
2017-10-27T22:09:58.595Z,19.17
2017-10-27T22:12:33.797Z,19.77
2017-10-27T22:15:03.049Z,24.67
2017-10-27T22:17:32.171Z,22.63
2017-10-27T22:20:01.477Z,18.73
2017-10-27T22:22:31.248Z,25.07
2017-10-27T22:25:02.015Z,29.80
2017-10-27T22:27:31.105Z,30.90
2017-10-27T22:30:00.207Z,26.30
2017-10-27T22:32:29.657Z,19.90
2017-10-27T22:34:58.760Z,19.70
2017-10-27T22:37:27.880Z,23.00
2017-10-27T22:39:56.995Z,22.67
2017-10-27T22:42:26.326Z,25.27
2017-10-27T22:44:56.080Z,16.73
2017-10-27T22:47:25.169Z,26.20
2017-10-27T22:49:56.428Z,25.70
2017-10-27T22:52:25.663Z,18.07
2017-10-27T22:54:54.772Z,17.00
2017-10-27T22:57:23.861Z,17.90
2017-10-27T22:59:52.966Z,24.90
2017-10-27T23:02:22.187Z,23.10
2017-10-27T23:04:51.300Z,32.73
2017-10-27T23:07:20.562Z,22.43
2017-10-27T23:09:49.666Z,20.80
2017-10-27T23:12:18.752Z,34.30
2017-10-27T23:14:48.230Z,21.47
2017-10-27T23:17:17.534Z,20.77
2017-10-27T23:19:46.924Z,19.00
2017-10-27T23:22:16.051Z,21.87
2017-10-27T23:24:45.111Z,24.43
2017-10-27T23:27:14.227Z,20.37
2017-10-27T23:29:43.330Z,24.60
2017-10-27T23:32:12.430Z,28.33
2017-10-27T23:34:55.142Z,25.50
2017-10-27T23:37:24.523Z,18.40
2017-10-27T23:39:53.689Z,24.67
2017-10-27T23:42:23.911Z,20.67
2017-10-27T23:44:59.165Z,21.50
2017-10-27T23:47:28.271Z,29.77
2017-10-27T23:49:57.494Z,25.27
2017-10-27T23:52:26.597Z,19.27
2017-10-27T23:54:55.700Z,16.20
2017-10-27T23:57:24.798Z,29.63
2017-10-27T23:59:53.871Z,25.03
